Terminal Aerodrome Forecast
Issued by NWS

Home | Current Version | Previous Version | Text Only | Print | Product List | Glossary On
Versions: 1 2 3 4 5 6 7 8 9 10 11 12 13
753
FTUS46 KSTO 250535
TAFRDD
TAF
KRDD 250535Z 2506/2606 18011KT P6SM BKN200
     FM250900 VRB04KT P6SM BKN050
      TEMPO 2513/2516 BKN020
     FM260000 20005KT P6SM BKN100=

USA.gov is the U.S. government's official web portal to all federal, state and local government web resources and services.